Latest Weather Observations for South Channel Island

IDV60901

Issued at 4:41 pm EST Sunday 24 July 2016 (issued every 10 minutes, with the page automatically refreshed every 10 minutes)

About weather observations | Map of Melbourne area stations | Latest observations for Melbourne area | Other Formats
Station Details ID: 086344 Name: SOUTH CHANNEL ISLAND Lat: -38.31 Lon: 144.80 Height: 9.0 m
Data from the previous 72 hours. | See also: Recent months for locations in Victoria
Date/Time
EST
Temp
°C
App
Temp
°C
Dew
Point
°C
Rel
Hum
%
Delta-T
°C
Wind Press
QNH
hPa
Press
MSL
hPa
Rain since
9am
mm
Dir  Spd
km/h
Gust
km/h
Spd
kts
Gust
kts
24/04:30pm - - - - - N 39 44 21 24 - - -
24/04:00pm - - - - - N 39 46 21 25 - - -
24/03:30pm - - - - - N 43 50 23 27 - - -
24/03:00pm - - - - - N 37 46 20 25 - - -
24/02:30pm - - - - - N 39 46 21 25 - - -
24/02:00pm - - - - - N 39 50 21 27 - - -
24/01:30pm - - - - - N 41 48 22 26 - - -
24/01:00pm - - - - - N 43 50 23 27 - - -
24/12:30pm - - - - - N 39 46 21 25 - - -
24/12:00pm - - - - - N 37 43 20 23 - - -
24/11:30am - - - - - N 37 43 20 23 - - -
24/11:00am - - - - - N 35 39 19 21 - - -
24/10:30am - - - - - N 33 39 18 21 - - -
24/10:00am - - - - - N 35 44 19 24 - - -
24/09:30am - - - - - N 33 39 18 21 - - -
24/09:00am - - - - - N 33 39 18 21 - - -
24/08:30am - - - - - N 39 46 21 25 - - -
24/08:00am - - - - - N 39 44 21 24 - - -
24/07:30am - - - - - NNW 37 41 20 22 - - -
24/07:00am - - - - - NNW 35 39 19 21 - - -
24/06:30am - - - - - NNW 32 35 17 19 - - -
24/06:00am - - - - - NW 30 35 16 19 - - -
24/05:30am - - - - - NNW 28 33 15 18 - - -
24/05:00am - - - - - NNW 26 32 14 17 - - -
24/04:30am - - - - - NW 33 39 18 21 - - -
24/04:00am - - - - - NW 33 37 18 20 - - -
24/03:30am - - - - - NW 32 35 17 19 - - -
24/03:00am - - - - - NW 35 39 19 21 - - -
24/02:30am - - - - - NW 33 37 18 20 - - -
24/02:00am - - - - - NW 37 41 20 22 - - -
24/01:30am - - - - - NW 33 39 18 21 - - -
24/01:00am - - - - - WNW 37 43 20 23 - - -
24/12:30am - - - - - WNW 35 41 19 22 - - -
24/12:00am - - - - - WNW 39 44 21 24 - - -
 
Date/Time
EST
Temp
°C
App
Temp
°C
Dew
Point
°C
Rel
Hum
%
Delta-T
°C
Wind Press
QNH
hPa
Press
MSL
hPa
Rain since
9am
mm
Dir  Spd
km/h
Gust
km/h
Spd
kts
Gust
kts
23/11:30pm - - - - - WNW 41 48 22 26 - - -
23/11:00pm - - - - - WNW 39 46 21 25 - - -
23/10:30pm - - - - - WNW 43 52 23 28 - - -
23/10:00pm - - - - - WNW 43 50 23 27 - - -
23/09:30pm - - - - - WNW 46 52 25 28 - - -
23/09:00pm - - - - - WNW 43 50 23 27 - - -
23/08:30pm - - - - - WNW 43 50 23 27 - - -
23/08:00pm - - - - - WNW 41 48 22 26 - - -
23/07:30pm - - - - - NW 39 50 21 27 - - -
23/07:00pm - - - - - WNW 41 50 22 27 - - -
23/06:30pm - - - - - WNW 44 52 24 28 - - -
23/06:00pm - - - - - WNW 43 54 23 29 - - -
23/05:30pm - - - - - WNW 39 48 21 26 - - -
23/05:00pm - - - - - WNW 43 52 23 28 - - -
23/04:30pm - - - - - W 39 46 21 25 - - -
23/04:00pm - - - - - W 46 57 25 31 - - -
23/03:30pm - - - - - W 52 61 28 33 - - -
23/03:14pm - - - - - WNW 46 65 25 35 - - -
23/03:00pm - - - - - WNW 41 50 22 27 - - -
23/02:30pm - - - - - W 54 63 29 34 - - -
23/02:00pm - - - - - W 57 72 31 39 - - -
23/01:30pm - - - - - W 59 78 32 42 - - -
23/01:29pm - - - - - W 59 78 32 42 - - -
23/01:00pm - - - - - W 54 63 29 34 - - -
23/12:31pm - - - - - W 46 65 25 35 - - -
23/12:30pm - - - - - W 44 61 24 33 - - -
23/12:28pm - - - - - W 43 61 23 33 - - -
23/12:17pm - - - - - W 52 67 28 36 - - -
23/12:00pm - - - - - WNW 48 57 26 31 - - -
23/11:30am - - - - - WNW 52 63 28 34 - - -
23/11:15am - - - - - WNW 50 57 27 31 - - -
23/11:00am - - - - - W 48 57 26 31 - - -
23/10:37am - - - - - W 50 72 27 39 - - -
23/10:30am - - - - - W 50 57 27 31 - - -
23/10:00am - - - - - W 56 65 30 35 - - -
23/09:30am - - - - - W 54 65 29 35 - - -
23/09:00am - - - - - W 54 67 29 36 - - -
23/08:30am - - - - - WSW 48 65 26 35 - - -
23/08:23am - - - - - WSW 56 74 30 40 - - -
23/08:18am - - - - - WSW 56 74 30 40 - - -
23/08:00am - - - - - W 59 82 32 44 - - -
23/07:49am - - - - - WSW 69 87 37 47 - - -
23/07:47am - - - - - WSW 67 87 36 47 - - -
23/07:35am - - - - - WSW 57 100 31 54 - - -
23/07:34am - - - - - WSW 54 100 29 54 - - -
23/07:33am - - - - - W 52 70 28 38 - - -
23/07:30am - - - - - W 50 65 27 35 - - -
23/07:00am - - - - - W 56 74 30 40 - - -
23/06:55am - - - - - W 56 74 30 40 - - -
23/06:30am - - - - - W 57 74 31 40 - - -
23/06:02am - - - - - W 48 72 26 39 - - -
23/06:01am - - - - - W 48 72 26 39 - - -
23/06:00am - - - - - W 48 57 26 31 - - -
23/05:34am - - - - - W 57 76 31 41 - - -
23/05:30am - - - - - WSW 63 80 34 43 - - -
23/05:18am - - - - - WNW 56 74 30 40 - - -
23/05:00am - - - - - WNW 52 59 28 32 - - -
23/04:30am - - - - - WNW 54 63 29 34 - - -
23/04:00am - - - - - WNW 56 74 30 40 - - -
23/03:58am - - - - - WNW 56 74 30 40 - - -
23/03:30am - - - - - W 54 63 29 34 - - -
23/03:28am - - - - - W 56 70 30 38 - - -
23/03:00am - - - - - WSW 56 70 30 38 - - -
23/02:30am - - - - - SW 69 89 37 48 - - -
23/02:13am - - - - - W 70 95 38 51 - - -
23/02:10am - - - - - W 72 95 39 51 - - -
23/02:00am - - - - - WNW 72 93 39 50 - - -
23/01:34am - - - - - NW 59 80 32 43 - - -
23/01:30am - - - - - NW 57 72 31 39 - - -
23/01:24am - - - - - NW 52 70 28 38 - - -
23/01:00am - - - - - NW 44 57 24 31 - - -
23/12:30am - - - - - NW 48 61 26 33 - - -
23/12:00am - - - - - NW 39 50 21 27 - - -
 
Date/Time
EST
Temp
°C
App
Temp
°C
Dew
Point
°C
Rel
Hum
%
Delta-T
°C
Wind Press
QNH
hPa
Press
MSL
hPa
Rain since
9am
mm
Dir  Spd
km/h
Gust
km/h
Spd
kts
Gust
kts
22/11:30pm - - - - - NW 41 50 22 27 - - -
22/11:00pm - - - - - NW 39 46 21 25 - - -
22/10:30pm - - - - - NW 46 57 25 31 - - -
22/10:10pm - - - - - NW 37 56 20 30 - - -
22/10:00pm - - - - - NNW 30 33 16 18 - - -
22/09:30pm - - - - - NNW 20 24 11 13 - - -
22/09:00pm - - - - - NW 26 30 14 16 - - -
22/08:30pm - - - - - NW 28 32 15 17 - - -
22/08:00pm - - - - - NW 28 32 15 17 - - -
22/07:30pm - - - - - NW 24 28 13 15 - - -
22/07:00pm - - - - - NW 28 32 15 17 - - -
22/06:30pm - - - - - NW 32 39 17 21 - - -
22/06:00pm - - - - - NW 32 37 17 20 - - -
22/05:30pm - - - - - WNW 39 48 21 26 - - -
22/05:00pm - - - - - W 39 44 21 24 - - -
22/04:30pm - - - - - WNW 37 48 20 26 - - -
22/04:00pm - - - - - WNW 39 48 21 26 - - -
22/03:30pm - - - - - WNW 35 39 19 21 - - -
22/03:00pm - - - - - WNW 37 43 20 23 - - -
22/02:30pm - - - - - WNW 44 52 24 28 - - -
22/02:00pm - - - - - WNW 54 67 29 36 - - -
22/01:30pm - - - - - W 63 76 34 41 - - -
22/01:02pm - - - - - WNW 57 96 31 52 - - -
22/01:01pm - - - - - NW 54 80 29 43 - - -
22/01:00pm - - - - - NW 52 69 28 37 - - -
22/12:30pm - - - - - NW 46 59 25 32 - - -
22/12:00pm - - - - - NW 43 52 23 28 - - -
22/11:30am - - - - - NW 48 57 26 31 - - -
22/11:00am - - - - - NW 41 50 22 27 - - -
22/10:30am - - - - - NW 32 37 17 20 - - -
22/10:00am - - - - - NW 35 39 19 21 - - -
22/09:30am - - - - - NW 19 26 10 14 - - -
22/09:00am - - - - - NNW 17 22 9 12 - - -
22/08:30am - - - - - NNW 13 17 7 9 - - -
22/08:00am - - - - - NNW 19 22 10 12 - - -
22/07:30am - - - - - N 20 22 11 12 - - -
22/07:00am - - - - - NNW 19 22 10 12 - - -
22/06:30am - - - - - NW 32 35 17 19 - - -
22/06:00am - - - - - NW 39 50 21 27 - - -
22/05:38am - - - - - NW 39 50 21 27 - - -
22/05:30am - - - - - NW 48 69 26 37 - - -
22/05:25am - - - - - N 57 69 31 37 - - -
22/05:00am - - - - - N 52 61 28 33 - - -
22/04:30am - - - - - N 57 69 31 37 - - -
22/04:00am - - - - - N 54 65 29 35 - - -
22/03:30am - - - - - N 59 70 32 38 - - -
22/03:00am - - - - - N 56 67 30 36 - - -
22/02:30am - - - - - N 54 69 29 37 - - -
22/02:00am - - - - - N 57 70 31 38 - - -
22/01:30am - - - - - N 65 78 35 42 - - -
22/01:00am - - - - - N 61 70 33 38 - - -
22/12:30am - - - - - N 57 67 31 36 - - -
22/12:00am - - - - - N 56 65 30 35 - - -
 
Date/Time
EST
Temp
°C
App
Temp
°C
Dew
Point
°C
Rel
Hum
%
Delta-T
°C
Wind Press
QNH
hPa
Press
MSL
hPa
Rain since
9am
mm
Dir  Spd
km/h
Gust
km/h
Spd
kts
Gust
kts
21/11:30pm - - - - - N 46 57 25 31 - - -
21/11:00pm - - - - - N 46 56 25 30 - - -
21/10:30pm - - - - - N 46 54 25 29 - - -
21/10:00pm - - - - - N 54 61 29 33 - - -
21/09:30pm - - - - - N 52 57 28 31 - - -
21/09:00pm - - - - - N 57 67 31 36 - - -
21/08:30pm - - - - - N 54 63 29 34 - - -
21/08:00pm - - - - - N 44 54 24 29 - - -
21/07:30pm - - - - - N 39 46 21 25 - - -
21/07:00pm - - - - - NNE 28 37 15 20 - - -
21/06:30pm - - - - - NNE 28 30 15 16 - - -
21/06:00pm - - - - - N 32 41 17 22 - - -
21/05:30pm - - - - - NNE 24 28 13 15 - - -
21/05:00pm - - - - - NE 24 26 13 14 - - -

Latest Capital City Observations: Canberra | Sydney | Melbourne | Brisbane | Adelaide | Perth | Hobart | Darwin

Other Formats:

Comma delimited format used in spreadsheet applications
http://www.bom.gov.au/fwo/IDV60901/IDV60901.94853.axf

JavaScript Object Notation format (JSON) in row-major order
http://www.bom.gov.au/fwo/IDV60901/IDV60901.94853.json